Winter, Wisconsin
Current Conditions -  °F | °C
As of 2:35 PM on Sunday 25 Jan 2015 (Local Time) from KRCX Reporting Station
Broken Clouds Broken Clouds  
Wind Chill: 22°   Ceiling: 12000
Heat Index: 22°   Visibility: 10mi
Dew Point: 10°   Wind: 0mph
Humidity: 58%   Direction: NA
Pressure: 30.03"   Gusts: NA
Location:  45.82°N, 91.01°W
Report Text: KRCX 252035Z AUTO 00000KT 10SM SCT100 BKN120 M05/M12 A3003 RMK AO2 T10531125
Loading
Personal Weather Stations






























Interactive Weather Map New forecast layout! Learn more

10-Day Weather Forecast

Advertisements
Track Severe Weather on mobile